createdAt,value
2023-04-02T00:01:39.209Z,2.65
2023-04-02T00:04:16.147Z,2.10
2023-04-02T00:06:46.552Z,1.90
2023-04-02T00:09:13.217Z,2.20
2023-04-02T00:11:45.674Z,2.15
2023-04-02T00:14:28.074Z,2.72
2023-04-02T00:16:56.053Z,2.03
2023-04-02T00:19:35.163Z,2.20
2023-04-02T00:22:05.870Z,2.25
2023-04-02T00:24:33.642Z,2.10
2023-04-02T00:27:00.902Z,2.22
2023-04-02T00:29:27.755Z,2.10
2023-04-02T00:31:54.953Z,2.70
2023-04-02T00:34:42.050Z,1.98
2023-04-02T00:37:18.289Z,2.60
2023-04-02T00:39:45.988Z,2.20
2023-04-02T00:42:13.148Z,2.22
2023-04-02T00:44:44.455Z,2.10
2023-04-02T00:47:22.597Z,2.58
2023-04-02T00:50:07.545Z,2.42
2023-04-02T00:52:36.292Z,2.90
2023-04-02T00:55:13.559Z,2.67
2023-04-02T00:57:45.020Z,2.63
2023-04-02T01:00:44.036Z,3.17
2023-04-02T01:03:16.875Z,2.70
2023-04-02T01:06:01.629Z,2.50
2023-04-02T01:08:43.984Z,2.80
2023-04-02T01:11:43.936Z,2.97
2023-04-02T01:14:44.197Z,2.85
2023-04-02T01:17:30.514Z,2.90
2023-04-02T01:20:16.018Z,3.05
2023-04-02T01:22:51.017Z,2.92
2023-04-02T01:25:25.028Z,2.72
2023-04-02T01:28:01.006Z,2.60
2023-04-02T01:30:27.768Z,3.00
2023-04-02T01:32:54.758Z,2.80
2023-04-02T01:35:22.446Z,3.00
2023-04-02T01:37:57.314Z,2.25
2023-04-02T01:40:47.108Z,2.60
2023-04-02T01:43:49.077Z,2.75
2023-04-02T01:48:59.682Z,2.60
2023-04-02T01:51:40.244Z,2.50
2023-04-02T01:54:08.563Z,2.80
2023-04-02T01:56:35.658Z,2.20
2023-04-02T01:59:05.807Z,2.83
2023-04-02T02:01:39.460Z,2.75
2023-04-02T02:04:07.113Z,2.67
2023-04-02T02:06:33.829Z,2.38
2023-04-02T02:09:04.222Z,2.50
2023-04-02T02:11:33.235Z,2.30
2023-04-02T02:14:02.176Z,2.10
2023-04-02T02:16:31.958Z,2.47
2023-04-02T02:19:02.497Z,2.15
2023-04-02T02:21:45.652Z,2.67
2023-04-02T02:24:19.128Z,2.35
2023-04-02T02:26:48.454Z,2.55
2023-04-02T02:29:19.986Z,2.20
2023-04-02T02:31:48.748Z,2.35
2023-04-02T02:34:29.762Z,2.35
2023-04-02T02:37:06.782Z,2.65
2023-04-02T02:39:44.563Z,2.20
2023-04-02T02:42:16.451Z,2.42
2023-04-02T02:44:49.431Z,2.10
2023-04-02T02:47:22.480Z,2.17
2023-04-02T02:49:55.453Z,2.58
2023-04-02T02:52:31.728Z,2.10
2023-04-02T02:55:03.383Z,1.90
2023-04-02T03:00:00.620Z,2.33
2023-04-02T03:02:28.832Z,2.13
2023-04-02T03:04:56.550Z,1.90
2023-04-02T03:07:26.483Z,2.35
2023-04-02T03:10:14.625Z,2.00
2023-04-02T03:12:47.279Z,1.95
2023-04-02T03:15:32.067Z,2.30
2023-04-02T03:18:20.211Z,2.30
2023-04-02T03:20:49.020Z,2.15
2023-04-02T03:23:28.409Z,2.17
2023-04-02T03:26:15.505Z,2.10
2023-04-02T03:28:47.609Z,2.00
2023-04-02T03:31:27.549Z,2.00
2023-04-02T03:33:59.304Z,2.30
2023-04-02T03:36:28.503Z,2.65
2023-04-02T03:39:17.068Z,2.10
2023-04-02T03:41:52.402Z,1.98
2023-04-02T03:44:29.972Z,1.60
2023-04-02T03:47:03.674Z,2.00
2023-04-02T03:49:44.164Z,1.90
2023-04-02T03:52:12.200Z,2.20
2023-04-02T03:54:39.679Z,1.77
2023-04-02T03:57:32.027Z,1.90
2023-04-02T04:00:02.646Z,2.10
2023-04-02T04:02:41.201Z,2.00
2023-04-02T04:05:24.115Z,2.40
2023-04-02T04:07:53.942Z,2.53
2023-04-02T04:10:25.694Z,2.10
2023-04-02T04:12:55.681Z,1.58
2023-04-02T04:15:29.051Z,2.10
2023-04-02T04:18:02.460Z,2.22
2023-04-02T04:20:56.527Z,1.98
2023-04-02T04:23:30.545Z,1.70
2023-04-02T04:26:09.428Z,1.98
2023-04-02T04:29:16.069Z,2.20
2023-04-02T04:31:50.718Z,1.80
2023-04-02T04:34:46.898Z,1.92
2023-04-02T04:37:29.041Z,1.80
2023-04-02T04:40:24.526Z,2.08
2023-04-02T04:42:54.897Z,2.20
2023-04-02T04:45:41.210Z,1.83
2023-04-02T04:48:16.223Z,2.03
2023-04-02T04:51:20.999Z,1.85
2023-04-02T04:53:49.977Z,1.80
2023-04-02T04:56:25.034Z,1.60
2023-04-02T04:59:07.189Z,1.88
2023-04-02T05:01:41.973Z,1.98
2023-04-02T05:04:27.238Z,2.10
2023-04-02T05:07:12.576Z,1.83
2023-04-02T05:09:42.113Z,1.63
2023-04-02T05:12:27.038Z,1.90
2023-04-02T05:15:12.361Z,1.83
2023-04-02T05:18:18.570Z,2.10
2023-04-02T05:21:07.097Z,1.75
2023-04-02T05:24:02.931Z,2.22
2023-04-02T05:26:40.715Z,1.70
2023-04-02T05:29:26.541Z,1.88
2023-04-02T05:32:06.105Z,1.83
2023-04-02T05:34:37.315Z,1.92
2023-04-02T05:37:07.107Z,2.05
2023-04-02T05:39:34.169Z,1.70
2023-04-02T05:42:08.352Z,1.83
2023-04-02T05:44:41.487Z,1.70
2023-04-02T05:47:21.356Z,1.77
2023-04-02T05:49:56.754Z,1.92
2023-04-02T05:52:28.858Z,1.70
2023-04-02T05:55:02.737Z,2.20
2023-04-02T05:57:44.610Z,1.60
2023-04-02T06:00:25.332Z,1.60
2023-04-02T06:03:02.265Z,1.92
2023-04-02T06:05:36.261Z,2.03
2023-04-02T06:08:16.480Z,1.52
2023-04-02T06:11:01.309Z,1.70
2023-04-02T06:13:28.704Z,1.50
2023-04-02T06:15:55.869Z,1.67
2023-04-02T06:18:31.963Z,1.80
2023-04-02T06:20:59.094Z,1.85
2023-04-02T06:23:35.667Z,1.77
2023-04-02T06:26:07.580Z,1.20
2023-04-02T06:28:48.180Z,1.63
2023-04-02T06:31:23.560Z,1.50
2023-04-02T06:33:52.402Z,1.73
2023-04-02T06:36:20.431Z,1.85
2023-04-02T06:38:49.038Z,1.65
2023-04-02T06:41:22.176Z,1.60
2023-04-02T06:44:04.079Z,1.98
2023-04-02T06:46:49.922Z,1.70
2023-04-02T06:49:45.920Z,1.50
2023-04-02T06:52:25.390Z,1.60
2023-04-02T06:54:52.126Z,1.52
2023-04-02T06:57:18.837Z,1.70
2023-04-02T06:59:45.802Z,1.58
2023-04-02T07:02:36.767Z,1.70
2023-04-02T07:05:09.127Z,1.70
2023-04-02T07:07:36.028Z,1.70
2023-04-02T07:10:02.764Z,1.77
2023-04-02T07:12:29.429Z,1.90
2023-04-02T07:14:56.241Z,1.77
2023-04-02T07:17:23.027Z,1.60
2023-04-02T07:19:49.924Z,1.58
2023-04-02T07:22:19.806Z,1.60
2023-04-02T07:24:46.799Z,1.65
2023-04-02T07:27:14.766Z,1.60
2023-04-02T07:29:44.812Z,1.75
2023-04-02T07:32:14.558Z,1.80
2023-04-02T07:34:41.831Z,2.20
2023-04-02T07:37:13.675Z,1.73
2023-04-02T07:39:40.783Z,1.77
2023-04-02T07:42:08.089Z,1.77
2023-04-02T07:44:34.957Z,1.40
2023-04-02T07:47:01.825Z,1.70
2023-04-02T07:49:28.734Z,1.60
2023-04-02T07:51:55.422Z,1.60
2023-04-02T07:54:22.043Z,1.65
2023-04-02T07:56:48.700Z,1.75
2023-04-02T07:59:15.375Z,1.77
2023-04-02T08:01:43.015Z,1.80
2023-04-02T08:04:21.409Z,1.60
2023-04-02T08:06:49.700Z,1.70
2023-04-02T08:09:17.545Z,1.80
2023-04-02T08:11:44.380Z,1.70
2023-04-02T08:14:11.385Z,1.65
2023-04-02T08:17:04.503Z,1.45
2023-04-02T08:19:32.706Z,1.55
2023-04-02T08:22:00.484Z,1.33
2023-04-02T08:24:27.167Z,1.50
2023-04-02T08:26:54.471Z,1.60
2023-04-02T08:29:22.054Z,1.25
2023-04-02T08:31:48.911Z,1.40
2023-04-02T08:34:15.902Z,2.08
2023-04-02T08:36:44.570Z,1.60
2023-04-02T08:39:11.732Z,1.30
2023-04-02T08:41:47.126Z,1.70
2023-04-02T08:44:39.108Z,1.85
2023-04-02T08:49:39.825Z,1.50
2023-04-02T08:52:06.489Z,1.48
2023-04-02T08:54:39.118Z,1.33
2023-04-02T08:57:18.176Z,1.23
2023-04-02T08:59:45.559Z,1.20
2023-04-02T09:02:19.140Z,1.38
2023-04-02T09:04:46.040Z,1.45
2023-04-02T09:07:15.367Z,1.30
2023-04-02T09:09:42.593Z,1.55
2023-04-02T09:12:23.845Z,1.40
2023-04-02T09:15:06.733Z,1.20
2023-04-02T09:17:42.734Z,1.27
2023-04-02T09:20:13.331Z,1.27
2023-04-02T09:22:40.047Z,1.35
2023-04-02T09:25:14.618Z,1.65
2023-04-02T09:27:41.319Z,1.20
2023-04-02T09:30:32.192Z,1.40
2023-04-02T09:33:07.414Z,1.63
2023-04-02T09:35:36.913Z,1.40
2023-04-02T09:38:32.630Z,1.50
2023-04-02T09:41:00.947Z,1.35
2023-04-02T09:43:38.355Z,1.45
2023-04-02T09:46:22.008Z,1.40
2023-04-02T09:49:01.108Z,1.42
2023-04-02T09:51:31.814Z,1.20
2023-04-02T09:54:04.332Z,1.33
2023-04-02T09:56:39.019Z,1.65
2023-04-02T09:59:21.957Z,1.35
2023-04-02T10:01:54.630Z,1.30
2023-04-02T10:04:34.677Z,1.73
2023-04-02T10:07:01.818Z,1.40
2023-04-02T10:09:32.372Z,1.65
2023-04-02T10:12:01.233Z,1.42
2023-04-02T10:14:37.240Z,1.48
2023-04-02T10:17:14.685Z,1.17
2023-04-02T10:19:46.234Z,1.17
2023-04-02T10:22:22.027Z,1.38
2023-04-02T10:24:50.010Z,1.13
2023-04-02T10:27:22.493Z,1.30
2023-04-02T10:30:08.083Z,1.40
2023-04-02T10:32:44.438Z,1.30
2023-04-02T10:35:38.415Z,1.20
2023-04-02T10:38:42.609Z,1.30
2023-04-02T10:41:34.073Z,1.30
2023-04-02T10:44:20.034Z,1.05
2023-04-02T10:46:56.499Z,1.15
2023-04-02T10:49:28.138Z,1.40
2023-04-02T10:52:08.951Z,1.85
2023-04-02T10:54:51.611Z,1.53
2023-04-02T10:57:38.982Z,1.52
2023-04-02T11:00:12.829Z,1.40
2023-04-02T11:02:57.467Z,1.70
2023-04-02T11:05:44.904Z,1.30
2023-04-02T11:08:29.621Z,1.90
2023-04-02T11:11:02.806Z,1.95
2023-04-02T11:13:37.661Z,1.75
2023-04-02T11:16:04.665Z,1.70
2023-04-02T11:18:35.920Z,1.60
2023-04-02T11:21:22.772Z,1.38
2023-04-02T11:24:01.064Z,1.30
2023-04-02T11:26:34.283Z,1.90
2023-04-02T11:29:30.769Z,1.90
2023-04-02T11:32:27.844Z,1.48
2023-04-02T11:35:05.829Z,1.73
2023-04-02T11:37:41.069Z,1.52
2023-04-02T11:40:07.726Z,1.42
2023-04-02T11:42:50.611Z,1.48
2023-04-02T11:45:21.090Z,1.50
2023-04-02T11:48:00.680Z,1.90
2023-04-02T11:50:30.314Z,1.40
2023-04-02T11:53:20.625Z,1.50
2023-04-02T11:56:16.845Z,1.67
2023-04-02T11:59:24.448Z,1.38
2023-04-02T12:02:06.659Z,2.22
2023-04-02T12:04:40.741Z,1.95
2023-04-02T12:07:17.452Z,1.50
2023-04-02T12:09:49.666Z,1.50
2023-04-02T12:12:39.616Z,1.55
2023-04-02T12:15:28.003Z,1.35
2023-04-02T12:18:23.465Z,1.67
2023-04-02T12:20:56.314Z,1.45
2023-04-02T12:23:31.307Z,1.25
2023-04-02T12:26:24.582Z,1.50
2023-04-02T12:28:51.260Z,1.55
2023-04-02T12:31:21.839Z,1.50
2023-04-02T12:33:52.676Z,1.48
2023-04-02T12:36:23.851Z,1.77
2023-04-02T12:38:56.432Z,1.27
2023-04-02T12:41:31.144Z,1.48
2023-04-02T12:44:06.499Z,1.45
2023-04-02T12:46:35.526Z,1.60
2023-04-02T12:49:06.780Z,1.30
2023-04-02T12:51:36.273Z,1.20
2023-04-02T12:54:03.572Z,1.60
2023-04-02T12:56:30.347Z,1.30
2023-04-02T12:59:01.398Z,1.50
2023-04-02T13:01:31.473Z,1.42
2023-04-02T13:04:14.483Z,1.60
2023-04-02T13:06:50.019Z,1.20
2023-04-02T13:09:34.876Z,1.60
2023-04-02T13:12:02.577Z,1.27
2023-04-02T13:14:30.552Z,1.60
2023-04-02T13:16:57.520Z,1.08
2023-04-02T13:19:27.861Z,1.27
2023-04-02T13:21:56.291Z,1.52
2023-04-02T13:24:28.755Z,1.20
2023-04-02T13:26:58.429Z,1.40
2023-04-02T13:29:33.578Z,1.50
2023-04-02T13:32:03.303Z,1.40
2023-04-02T13:34:30.949Z,1.40
2023-04-02T13:36:58.238Z,1.40
2023-04-02T13:39:25.359Z,1.55
2023-04-02T13:41:54.808Z,1.52
2023-04-02T13:44:26.957Z,1.20
2023-04-02T13:46:55.136Z,1.27
2023-04-02T13:49:22.859Z,1.30
2023-04-02T13:51:55.208Z,1.40
2023-04-02T13:54:27.557Z,1.38
2023-04-02T13:56:56.012Z,1.40
2023-04-02T13:59:23.452Z,2.05
2023-04-02T14:01:53.376Z,1.30
2023-04-02T14:04:43.249Z,1.60
2023-04-02T14:07:20.512Z,1.38
2023-04-02T14:10:08.359Z,1.10
2023-04-02T14:12:59.309Z,1.20
2023-04-02T14:15:37.541Z,1.10
2023-04-02T14:18:10.500Z,1.30
2023-04-02T14:20:51.440Z,1.42
2023-04-02T14:23:30.346Z,1.30
2023-04-02T14:25:56.975Z,1.33
2023-04-02T14:28:57.721Z,1.20
2023-04-02T14:31:43.383Z,1.30
2023-04-02T14:34:33.361Z,1.40
2023-04-02T14:37:13.975Z,1.38
2023-04-02T14:39:59.326Z,1.30
2023-04-02T14:42:52.454Z,1.20
2023-04-02T14:45:49.006Z,1.27
2023-04-02T14:48:46.201Z,1.30
2023-04-02T14:51:14.882Z,1.77
2023-04-02T14:54:26.336Z,1.80
2023-04-02T14:57:10.130Z,1.35
2023-04-02T15:00:13.329Z,1.20
2023-04-02T15:02:51.517Z,1.30
2023-04-02T15:05:41.406Z,1.52
2023-04-02T15:08:18.555Z,1.10
2023-04-02T15:11:05.881Z,1.30
2023-04-02T15:13:45.962Z,1.48
2023-04-02T15:16:26.750Z,1.33
2023-04-02T15:18:56.497Z,1.10
2023-04-02T15:21:23.221Z,0.90
2023-04-02T15:23:50.064Z,1.10
2023-04-02T15:26:21.770Z,1.20
2023-04-02T15:29:28.207Z,1.23
2023-04-02T15:32:05.717Z,1.08
2023-04-02T15:34:40.872Z,1.25
2023-04-02T15:37:27.735Z,1.33
2023-04-02T15:40:23.771Z,1.30
2023-04-02T15:43:11.714Z,1.38
2023-04-02T15:45:49.060Z,1.42
2023-04-02T15:48:15.787Z,1.33
2023-04-02T15:50:49.548Z,1.20
2023-04-02T15:53:35.692Z,1.30
2023-04-02T15:56:05.443Z,1.08
2023-04-02T15:59:12.033Z,1.20
2023-04-02T16:01:48.793Z,1.60
2023-04-02T16:04:36.954Z,1.27
2023-04-02T16:07:14.354Z,1.30
2023-04-02T16:09:56.162Z,1.48
2023-04-02T16:12:25.679Z,1.58
2023-04-02T16:14:55.654Z,1.35
2023-04-02T16:17:33.568Z,1.30
2023-04-02T16:20:21.646Z,1.20
2023-04-02T16:23:16.255Z,1.20
2023-04-02T16:26:24.113Z,1.20
2023-04-02T16:29:09.408Z,1.00
2023-04-02T16:31:50.206Z,1.27
2023-04-02T16:34:30.690Z,1.30
2023-04-02T16:37:26.025Z,1.10
2023-04-02T16:40:26.178Z,1.10
2023-04-02T16:43:17.542Z,1.30
2023-04-02T16:45:44.167Z,1.30
2023-04-02T16:48:35.312Z,1.40
2023-04-02T16:51:17.613Z,1.10
2023-04-02T16:54:00.622Z,1.30
2023-04-02T16:57:02.100Z,1.10
2023-04-02T16:59:52.428Z,1.48
2023-04-02T17:02:51.733Z,1.40
2023-04-02T17:05:31.170Z,1.30
2023-04-02T17:08:16.129Z,1.25
2023-04-02T17:10:54.593Z,1.35
2023-04-02T17:13:41.454Z,1.25
2023-04-02T17:16:22.255Z,1.67
2023-04-02T17:18:53.096Z,1.30
2023-04-02T17:21:24.429Z,1.17
2023-04-02T17:23:56.521Z,1.40
2023-04-02T17:26:31.224Z,1.10
2023-04-02T17:29:00.542Z,1.30
2023-04-02T17:31:34.098Z,1.23
2023-04-02T17:34:11.642Z,1.30
2023-04-02T17:36:53.793Z,1.20
2023-04-02T17:39:25.723Z,1.13
2023-04-02T17:42:09.677Z,1.17
2023-04-02T17:44:50.397Z,1.17
2023-04-02T17:47:24.754Z,1.20
2023-04-02T17:50:20.930Z,1.33
2023-04-02T17:53:12.429Z,1.40
2023-04-02T17:56:04.232Z,1.20
2023-04-02T18:01:31.281Z,1.20
2023-04-02T18:04:11.602Z,1.20
2023-04-02T18:06:48.825Z,0.98
2023-04-02T18:09:52.176Z,1.08
2023-04-02T18:12:58.058Z,1.00
2023-04-02T18:15:39.879Z,1.30
2023-04-02T18:18:29.682Z,1.10
2023-04-02T18:21:16.584Z,1.30
2023-04-02T18:24:06.380Z,1.35
2023-04-02T18:26:38.788Z,1.10
2023-04-02T18:29:08.556Z,1.15
2023-04-02T18:32:01.209Z,1.30
2023-04-02T18:34:33.939Z,1.30
2023-04-02T18:37:18.959Z,1.10
2023-04-02T18:40:26.088Z,1.10
2023-04-02T18:43:14.160Z,1.20
2023-04-02T18:46:10.002Z,1.20
2023-04-02T18:48:47.162Z,1.40
2023-04-02T18:51:21.941Z,1.35
2023-04-02T18:54:10.793Z,1.10
2023-04-02T18:56:39.115Z,0.88
2023-04-02T18:59:21.723Z,1.10
2023-04-02T19:01:52.136Z,1.30
2023-04-02T19:04:28.868Z,1.13
2023-04-02T19:07:07.074Z,1.08
2023-04-02T19:09:41.074Z,1.40
2023-04-02T19:12:16.000Z,1.20
2023-04-02T19:14:42.766Z,1.30
2023-04-02T19:17:29.367Z,1.00
2023-04-02T19:20:17.056Z,1.08
2023-04-02T19:22:54.307Z,1.00
2023-04-02T19:25:34.036Z,0.95
2023-04-02T19:28:15.916Z,1.30
2023-04-02T19:33:34.743Z,1.20
2023-04-02T19:36:28.595Z,1.13
2023-04-02T19:39:01.465Z,1.15
2023-04-02T19:42:03.198Z,1.10
2023-04-02T19:44:30.260Z,1.25
2023-04-02T19:46:57.888Z,1.10
2023-04-02T19:49:32.714Z,1.00
2023-04-02T19:51:59.453Z,1.40
2023-04-02T19:54:26.115Z,1.50
2023-04-02T19:56:53.105Z,1.23
2023-04-02T19:59:19.868Z,1.20
2023-04-02T20:01:47.057Z,1.10
2023-04-02T20:04:14.771Z,1.05
2023-04-02T20:06:41.981Z,1.88
2023-04-02T20:09:08.863Z,1.15
2023-04-02T20:11:37.758Z,1.10
2023-04-02T20:14:05.466Z,1.27
2023-04-02T20:16:33.688Z,1.10
2023-04-02T20:19:00.640Z,1.20
2023-04-02T20:21:27.568Z,1.40
2023-04-02T20:23:55.068Z,1.20
2023-04-02T20:26:22.642Z,1.20
2023-04-02T20:28:49.556Z,1.25
2023-04-02T20:31:18.465Z,1.13
2023-04-02T20:33:45.718Z,1.08
2023-04-02T20:36:15.676Z,1.27
2023-04-02T20:38:43.347Z,1.25
2023-04-02T20:41:10.387Z,1.20
2023-04-02T20:43:40.681Z,1.23
2023-04-02T20:46:10.043Z,1.30
2023-04-02T20:48:38.738Z,1.15
2023-04-02T20:51:09.871Z,1.20
2023-04-02T20:53:37.960Z,1.13
2023-04-02T20:56:06.717Z,1.20
2023-04-02T20:58:35.589Z,1.15
2023-04-02T21:01:19.668Z,1.10
2023-04-02T21:03:46.933Z,1.35
2023-04-02T21:06:19.554Z,1.02
2023-04-02T21:08:46.799Z,0.90
2023-04-02T21:11:14.203Z,1.00
2023-04-02T21:13:44.231Z,1.10
2023-04-02T21:16:16.158Z,1.08
2023-04-02T21:18:43.913Z,1.17
2023-04-02T21:21:13.518Z,1.10
2023-04-02T21:23:43.485Z,1.17
2023-04-02T21:26:17.940Z,1.50
2023-04-02T21:28:45.906Z,1.40
2023-04-02T21:31:20.448Z,1.20
2023-04-02T21:33:53.579Z,1.10
2023-04-02T21:36:23.038Z,1.30
2023-04-02T21:38:52.763Z,1.27
2023-04-02T21:41:26.535Z,1.17
2023-04-02T21:43:54.299Z,1.20
2023-04-02T21:46:23.648Z,1.58
2023-04-02T21:48:51.882Z,1.00
2023-04-02T21:51:23.485Z,1.10
2023-04-02T21:56:19.271Z,1.17
2023-04-02T21:58:47.254Z,1.10
2023-04-02T22:01:26.630Z,1.10
2023-04-02T22:03:58.157Z,0.98
2023-04-02T22:06:26.554Z,0.90
2023-04-02T22:08:56.204Z,1.00
2023-04-02T22:11:44.715Z,1.10
2023-04-02T22:14:11.990Z,1.27
2023-04-02T22:16:40.565Z,0.90
2023-04-02T22:19:10.511Z,1.08
2023-04-02T22:21:38.036Z,0.93
2023-04-02T22:24:07.030Z,0.90
2023-04-02T22:26:35.053Z,1.00
2023-04-02T22:29:02.065Z,0.90
2023-04-02T22:31:31.598Z,1.10
2023-04-02T22:33:58.874Z,1.30
2023-04-02T22:36:27.402Z,0.90
2023-04-02T22:38:54.167Z,0.82
2023-04-02T22:41:27.315Z,0.80
2023-04-02T22:43:55.623Z,1.30
2023-04-02T22:46:23.077Z,1.10
2023-04-02T22:48:50.440Z,1.20
2023-04-02T22:51:19.685Z,0.80
2023-04-02T22:53:46.920Z,1.05
2023-04-02T22:56:22.875Z,0.90
2023-04-02T22:58:50.226Z,1.00
2023-04-02T23:01:22.996Z,1.02
2023-04-02T23:03:50.065Z,1.20
2023-04-02T23:06:18.317Z,1.00
2023-04-02T23:08:46.064Z,1.08
2023-04-02T23:11:19.432Z,1.10
2023-04-02T23:13:49.016Z,1.10
2023-04-02T23:16:16.770Z,1.33
2023-04-02T23:18:46.198Z,1.10
2023-04-02T23:21:13.162Z,0.80
2023-04-02T23:23:39.794Z,0.90
2023-04-02T23:26:09.385Z,1.20
2023-04-02T23:28:36.912Z,1.00
2023-04-02T23:31:05.966Z,1.00
2023-04-02T23:33:32.854Z,1.02
2023-04-02T23:36:00.119Z,0.88
2023-04-02T23:38:27.077Z,1.10
2023-04-02T23:40:53.978Z,1.10
2023-04-02T23:43:20.735Z,1.00
2023-04-02T23:45:50.571Z,1.15
2023-04-02T23:48:17.340Z,0.90
2023-04-02T23:50:45.367Z,1.15
2023-04-02T23:53:12.677Z,0.90
2023-04-02T23:55:40.312Z,1.17
2023-04-02T23:58:07.074Z,1.00
